Terminal Aerodrome Forecast
Issued by NWS Billings, MT

Home | Current Version | Previous Version | Text Only | Print | Product List | Glossary On
Versions: 1 2 3 4 5 6 7 8 9 10 11 12 13 14 15 16 17 18 19 20 21 22 23 24 25 26 27 28 29 30 31 32
000
FTUS45 KBYZ 060529
TAFSHR
TAF
KSHR 060529Z 0606/0706 16014G26KT P6SM BKN120
     FM060900 32015KT P6SM VCSH SCT050 BKN100
     FM061100 31018G27KT P6SM -SHRA SCT015 BKN025
     FM061900 32020G30KT P6SM -SHRA BKN035
     FM062300 32014KT P6SM OVC040=

USA.gov is the U.S. government's official web portal to all federal, state and local government web resources and services.